sensor_id;sensor_type;location;lat;lon;timestamp;P1;durP1;ratioP1;P2;durP2;ratioP2
23702;SDS011;12030;50.376;8.762;2022-11-20T00:01:20;11.67;;;9.07;;
23702;SDS011;12030;50.376;8.762;2022-11-20T00:03:47;12.77;;;9.53;;
23702;SDS011;12030;50.376;8.762;2022-11-20T00:06:14;12.87;;;9.73;;
23702;SDS011;12030;50.376;8.762;2022-11-20T00:08:41;11.67;;;9.70;;
23702;SDS011;12030;50.376;8.762;2022-11-20T00:11:09;12.37;;;9.67;;
23702;SDS011;12030;50.376;8.762;2022-11-20T00:13:35;13.53;;;9.63;;
23702;SDS011;12030;50.376;8.762;2022-11-20T00:16:02;11.67;;;9.40;;
23702;SDS011;12030;50.376;8.762;2022-11-20T00:18:29;12.17;;;9.87;;
23702;SDS011;12030;50.376;8.762;2022-11-20T00:21:00;12.73;;;9.20;;
23702;SDS011;12030;50.376;8.762;2022-11-20T00:23:26;13.00;;;9.50;;
23702;SDS011;12030;50.376;8.762;2022-11-20T00:25:52;13.20;;;9.53;;
23702;SDS011;12030;50.376;8.762;2022-11-20T00:28:18;11.10;;;8.90;;
23702;SDS011;12030;50.376;8.762;2022-11-20T00:30:43;11.50;;;9.37;;
23702;SDS011;12030;50.376;8.762;2022-11-20T00:33:09;11.27;;;9.23;;
23702;SDS011;12030;50.376;8.762;2022-11-20T00:35:34;12.60;;;8.77;;
23702;SDS011;12030;50.376;8.762;2022-11-20T00:38:00;11.17;;;8.80;;
23702;SDS011;12030;50.376;8.762;2022-11-20T00:40:25;14.30;;;9.43;;
23702;SDS011;12030;50.376;8.762;2022-11-20T00:42:51;10.83;;;8.40;;
23702;SDS011;12030;50.376;8.762;2022-11-20T00:45:16;10.80;;;8.70;;
23702;SDS011;12030;50.376;8.762;2022-11-20T00:47:42;12.43;;;9.43;;
23702;SDS011;12030;50.376;8.762;2022-11-20T00:50:07;10.97;;;8.83;;
23702;SDS011;12030;50.376;8.762;2022-11-20T00:52:33;11.67;;;8.03;;
23702;SDS011;12030;50.376;8.762;2022-11-20T00:54:59;10.67;;;8.40;;
23702;SDS011;12030;50.376;8.762;2022-11-20T00:57:24;12.13;;;9.20;;
23702;SDS011;12030;50.376;8.762;2022-11-20T00:59:50;10.87;;;8.73;;
23702;SDS011;12030;50.376;8.762;2022-11-20T01:02:15;11.77;;;9.07;;
23702;SDS011;12030;50.376;8.762;2022-11-20T01:04:41;10.40;;;8.37;;
23702;SDS011;12030;50.376;8.762;2022-11-20T01:07:07;11.03;;;8.77;;
23702;SDS011;12030;50.376;8.762;2022-11-20T01:09:33;12.47;;;8.77;;
23702;SDS011;12030;50.376;8.762;2022-11-20T01:11:58;11.70;;;9.43;;
23702;SDS011;12030;50.376;8.762;2022-11-20T01:14:24;10.97;;;8.87;;
23702;SDS011;12030;50.376;8.762;2022-11-20T01:16:50;12.63;;;9.03;;
23702;SDS011;12030;50.376;8.762;2022-11-20T01:19:22;11.87;;;8.97;;
23702;SDS011;12030;50.376;8.762;2022-11-20T01:21:49;11.67;;;8.93;;
23702;SDS011;12030;50.376;8.762;2022-11-20T01:24:17;11.87;;;9.33;;
23702;SDS011;12030;50.376;8.762;2022-11-20T01:26:44;10.47;;;9.10;;
23702;SDS011;12030;50.376;8.762;2022-11-20T01:29:16;9.70;;;7.93;;
23702;SDS011;12030;50.376;8.762;2022-11-20T01:31:43;12.23;;;8.80;;
23702;SDS011;12030;50.376;8.762;2022-11-20T01:34:11;11.53;;;8.93;;
23702;SDS011;12030;50.376;8.762;2022-11-20T01:36:41;12.07;;;9.20;;
23702;SDS011;12030;50.376;8.762;2022-11-20T01:39:10;10.57;;;8.93;;
23702;SDS011;12030;50.376;8.762;2022-11-20T01:41:41;10.97;;;9.03;;
23702;SDS011;12030;50.376;8.762;2022-11-20T01:44:43;11.07;;;8.73;;
23702;SDS011;12030;50.376;8.762;2022-11-20T01:50:08;10.73;;;8.57;;
23702;SDS011;12030;50.376;8.762;2022-11-20T01:52:41;11.77;;;8.73;;
23702;SDS011;12030;50.376;8.762;2022-11-20T01:55:13;10.97;;;8.43;;
23702;SDS011;12030;50.376;8.762;2022-11-20T01:57:42;11.80;;;9.17;;
23702;SDS011;12030;50.376;8.762;2022-11-20T02:00:10;12.03;;;8.80;;
23702;SDS011;12030;50.376;8.762;2022-11-20T02:02:37;11.57;;;9.23;;
23702;SDS011;12030;50.376;8.762;2022-11-20T02:05:14;11.57;;;9.03;;
23702;SDS011;12030;50.376;8.762;2022-11-20T02:08:00;13.73;;;9.23;;
23702;SDS011;12030;50.376;8.762;2022-11-20T02:10:28;10.83;;;8.47;;
23702;SDS011;12030;50.376;8.762;2022-11-20T02:12:55;13.20;;;9.07;;
23702;SDS011;12030;50.376;8.762;2022-11-20T02:15:40;9.43;;;7.77;;
23702;SDS011;12030;50.376;8.762;2022-11-20T02:18:05;11.60;;;8.53;;
23702;SDS011;12030;50.376;8.762;2022-11-20T02:20:31;11.10;;;8.50;;
23702;SDS011;12030;50.376;8.762;2022-11-20T02:22:59;11.80;;;9.13;;
23702;SDS011;12030;50.376;8.762;2022-11-20T02:25:26;12.13;;;9.03;;
23702;SDS011;12030;50.376;8.762;2022-11-20T02:27:53;12.50;;;9.23;;
23702;SDS011;12030;50.376;8.762;2022-11-20T02:30:19;11.47;;;9.07;;
23702;SDS011;12030;50.376;8.762;2022-11-20T02:32:44;13.33;;;9.67;;
23702;SDS011;12030;50.376;8.762;2022-11-20T02:35:38;11.83;;;8.87;;
23702;SDS011;12030;50.376;8.762;2022-11-20T02:37:57;15.43;;;10.33;;
23702;SDS011;12030;50.376;8.762;2022-11-20T02:40:25;11.30;;;8.87;;
23702;SDS011;12030;50.376;8.762;2022-11-20T02:42:54;13.00;;;9.33;;
23702;SDS011;12030;50.376;8.762;2022-11-20T02:45:21;12.47;;;8.90;;
23702;SDS011;12030;50.376;8.762;2022-11-20T02:47:47;13.87;;;9.37;;
23702;SDS011;12030;50.376;8.762;2022-11-20T02:50:13;11.93;;;9.20;;
23702;SDS011;12030;50.376;8.762;2022-11-20T02:52:39;12.23;;;9.73;;
23702;SDS011;12030;50.376;8.762;2022-11-20T02:55:04;11.47;;;9.23;;
23702;SDS011;12030;50.376;8.762;2022-11-20T02:57:30;11.63;;;8.87;;
23702;SDS011;12030;50.376;8.762;2022-11-20T02:59:56;13.43;;;9.47;;
23702;SDS011;12030;50.376;8.762;2022-11-20T03:02:22;11.87;;;9.70;;
23702;SDS011;12030;50.376;8.762;2022-11-20T03:04:47;13.53;;;9.30;;
23702;SDS011;12030;50.376;8.762;2022-11-20T03:07:13;11.00;;;9.10;;
23702;SDS011;12030;50.376;8.762;2022-11-20T03:09:38;12.97;;;9.60;;
23702;SDS011;12030;50.376;8.762;2022-11-20T03:12:04;11.30;;;8.83;;
23702;SDS011;12030;50.376;8.762;2022-11-20T03:14:30;11.27;;;9.00;;
23702;SDS011;12030;50.376;8.762;2022-11-20T03:16:56;12.27;;;9.70;;
23702;SDS011;12030;50.376;8.762;2022-11-20T03:19:21;14.00;;;9.90;;
23702;SDS011;12030;50.376;8.762;2022-11-20T03:21:47;13.87;;;10.17;;
23702;SDS011;12030;50.376;8.762;2022-11-20T03:24:13;12.73;;;9.30;;
23702;SDS011;12030;50.376;8.762;2022-11-20T03:26:39;11.73;;;9.77;;
23702;SDS011;12030;50.376;8.762;2022-11-20T03:29:05;13.43;;;10.07;;
23702;SDS011;12030;50.376;8.762;2022-11-20T03:31:32;12.63;;;9.90;;
23702;SDS011;12030;50.376;8.762;2022-11-20T03:33:59;12.90;;;9.67;;
23702;SDS011;12030;50.376;8.762;2022-11-20T03:36:25;13.07;;;9.77;;
23702;SDS011;12030;50.376;8.762;2022-11-20T03:38:55;13.33;;;10.17;;
23702;SDS011;12030;50.376;8.762;2022-11-20T03:41:26;13.07;;;9.50;;
23702;SDS011;12030;50.376;8.762;2022-11-20T03:43:54;12.70;;;9.50;;
23702;SDS011;12030;50.376;8.762;2022-11-20T03:46:21;12.57;;;9.40;;
23702;SDS011;12030;50.376;8.762;2022-11-20T03:48:47;13.77;;;10.67;;
23702;SDS011;12030;50.376;8.762;2022-11-20T03:51:14;12.23;;;9.80;;
23702;SDS011;12030;50.376;8.762;2022-11-20T03:53:41;12.07;;;9.53;;
23702;SDS011;12030;50.376;8.762;2022-11-20T03:56:08;12.20;;;9.30;;
23702;SDS011;12030;50.376;8.762;2022-11-20T03:58:34;12.87;;;10.23;;
23702;SDS011;12030;50.376;8.762;2022-11-20T04:01:11;13.80;;;8.93;;
23702;SDS011;12030;50.376;8.762;2022-11-20T04:03:38;11.83;;;10.00;;
23702;SDS011;12030;50.376;8.762;2022-11-20T04:06:06;13.50;;;9.80;;
23702;SDS011;12030;50.376;8.762;2022-11-20T04:08:37;13.33;;;10.20;;
23702;SDS011;12030;50.376;8.762;2022-11-20T04:13:42;11.70;;;9.63;;
23702;SDS011;12030;50.376;8.762;2022-11-20T04:16:10;11.47;;;9.63;;
23702;SDS011;12030;50.376;8.762;2022-11-20T04:18:36;12.30;;;10.30;;
23702;SDS011;12030;50.376;8.762;2022-11-20T04:21:02;13.30;;;10.27;;
23702;SDS011;12030;50.376;8.762;2022-11-20T04:23:28;13.23;;;10.37;;
23702;SDS011;12030;50.376;8.762;2022-11-20T04:25:54;11.43;;;9.53;;
23702;SDS011;12030;50.376;8.762;2022-11-20T04:28:26;12.03;;;10.10;;
23702;SDS011;12030;50.376;8.762;2022-11-20T04:30:51;13.07;;;10.23;;
23702;SDS011;12030;50.376;8.762;2022-11-20T04:33:17;13.37;;;10.43;;
23702;SDS011;12030;50.376;8.762;2022-11-20T04:35:42;13.17;;;9.40;;
23702;SDS011;12030;50.376;8.762;2022-11-20T04:38:11;14.20;;;10.47;;
23702;SDS011;12030;50.376;8.762;2022-11-20T04:40:37;13.03;;;10.37;;
23702;SDS011;12030;50.376;8.762;2022-11-20T04:43:02;13.20;;;10.80;;
23702;SDS011;12030;50.376;8.762;2022-11-20T04:45:28;13.00;;;10.30;;
23702;SDS011;12030;50.376;8.762;2022-11-20T04:47:54;13.30;;;10.03;;
23702;SDS011;12030;50.376;8.762;2022-11-20T04:50:19;13.23;;;10.20;;
23702;SDS011;12030;50.376;8.762;2022-11-20T04:52:45;13.53;;;10.30;;
23702;SDS011;12030;50.376;8.762;2022-11-20T04:55:10;11.93;;;9.93;;
23702;SDS011;12030;50.376;8.762;2022-11-20T04:57:36;14.20;;;10.97;;
23702;SDS011;12030;50.376;8.762;2022-11-20T05:00:01;15.37;;;10.47;;
23702;SDS011;12030;50.376;8.762;2022-11-20T05:02:27;13.37;;;11.13;;
23702;SDS011;12030;50.376;8.762;2022-11-20T05:04:55;11.97;;;9.87;;
23702;SDS011;12030;50.376;8.762;2022-11-20T05:07:20;12.00;;;10.00;;
23702;SDS011;12030;50.376;8.762;2022-11-20T05:09:46;14.77;;;10.60;;
23702;SDS011;12030;50.376;8.762;2022-11-20T05:12:11;13.77;;;10.37;;
23702;SDS011;12030;50.376;8.762;2022-11-20T05:14:37;13.10;;;10.13;;
23702;SDS011;12030;50.376;8.762;2022-11-20T05:17:03;14.13;;;11.07;;
23702;SDS011;12030;50.376;8.762;2022-11-20T05:19:28;15.53;;;10.47;;
23702;SDS011;12030;50.376;8.762;2022-11-20T05:21:54;13.93;;;10.87;;
23702;SDS011;12030;50.376;8.762;2022-11-20T05:24:19;14.10;;;10.67;;
23702;SDS011;12030;50.376;8.762;2022-11-20T05:26:45;13.70;;;10.63;;
23702;SDS011;12030;50.376;8.762;2022-11-20T05:29:11;14.47;;;11.50;;
23702;SDS011;12030;50.376;8.762;2022-11-20T05:31:38;13.27;;;11.07;;
23702;SDS011;12030;50.376;8.762;2022-11-20T05:34:05;13.83;;;10.83;;
23702;SDS011;12030;50.376;8.762;2022-11-20T05:36:31;15.27;;;11.43;;
23702;SDS011;12030;50.376;8.762;2022-11-20T05:38:57;13.03;;;10.20;;
23702;SDS011;12030;50.376;8.762;2022-11-20T05:41:22;15.73;;;11.30;;
23702;SDS011;12030;50.376;8.762;2022-11-20T05:43:48;13.30;;;11.00;;
23702;SDS011;12030;50.376;8.762;2022-11-20T05:46:15;13.90;;;10.63;;
23702;SDS011;12030;50.376;8.762;2022-11-20T05:48:45;13.67;;;10.93;;
23702;SDS011;12030;50.376;8.762;2022-11-20T05:51:12;14.17;;;11.67;;
23702;SDS011;12030;50.376;8.762;2022-11-20T05:53:39;13.40;;;10.57;;
23702;SDS011;12030;50.376;8.762;2022-11-20T05:56:06;13.23;;;10.83;;
23702;SDS011;12030;50.376;8.762;2022-11-20T05:58:34;13.07;;;10.90;;
23702;SDS011;12030;50.376;8.762;2022-11-20T06:03:40;15.50;;;11.53;;
23702;SDS011;12030;50.376;8.762;2022-11-20T06:06:07;15.30;;;11.07;;
23702;SDS011;12030;50.376;8.762;2022-11-20T06:08:34;14.00;;;11.50;;
23702;SDS011;12030;50.376;8.762;2022-11-20T06:11:03;16.20;;;11.87;;
23702;SDS011;12030;50.376;8.762;2022-11-20T06:13:30;15.13;;;12.10;;
23702;SDS011;12030;50.376;8.762;2022-11-20T06:15:56;13.43;;;11.43;;
23702;SDS011;12030;50.376;8.762;2022-11-20T06:18:21;14.93;;;11.70;;
23702;SDS011;12030;50.376;8.762;2022-11-20T06:20:47;14.17;;;11.40;;
23702;SDS011;12030;50.376;8.762;2022-11-20T06:23:12;14.70;;;11.77;;
23702;SDS011;12030;50.376;8.762;2022-11-20T06:25:39;14.77;;;11.90;;
23702;SDS011;12030;50.376;8.762;2022-11-20T06:28:06;15.93;;;11.93;;
23702;SDS011;12030;50.376;8.762;2022-11-20T06:30:32;15.27;;;11.50;;
23702;SDS011;12030;50.376;8.762;2022-11-20T06:32:58;17.37;;;12.10;;
23702;SDS011;12030;50.376;8.762;2022-11-20T06:35:24;16.10;;;12.50;;
23702;SDS011;12030;50.376;8.762;2022-11-20T06:37:49;15.53;;;11.80;;
23702;SDS011;12030;50.376;8.762;2022-11-20T06:40:15;17.00;;;13.50;;
23702;SDS011;12030;50.376;8.762;2022-11-20T06:42:40;17.17;;;13.83;;
23702;SDS011;12030;50.376;8.762;2022-11-20T06:45:06;17.40;;;13.23;;
23702;SDS011;12030;50.376;8.762;2022-11-20T06:47:32;16.57;;;13.47;;
23702;SDS011;12030;50.376;8.762;2022-11-20T06:49:58;16.70;;;13.20;;
23702;SDS011;12030;50.376;8.762;2022-11-20T06:52:23;17.73;;;13.17;;
23702;SDS011;12030;50.376;8.762;2022-11-20T06:54:49;19.33;;;14.47;;
23702;SDS011;12030;50.376;8.762;2022-11-20T06:57:15;16.97;;;13.97;;
23702;SDS011;12030;50.376;8.762;2022-11-20T06:59:40;17.70;;;13.47;;
23702;SDS011;12030;50.376;8.762;2022-11-20T07:02:08;15.60;;;12.53;;
23702;SDS011;12030;50.376;8.762;2022-11-20T07:04:36;17.17;;;13.07;;
23702;SDS011;12030;50.376;8.762;2022-11-20T07:07:01;18.23;;;13.47;;
23702;SDS011;12030;50.376;8.762;2022-11-20T07:09:27;15.60;;;12.80;;
23702;SDS011;12030;50.376;8.762;2022-11-20T07:11:52;16.63;;;13.77;;
23702;SDS011;12030;50.376;8.762;2022-11-20T07:14:18;18.43;;;14.00;;
23702;SDS011;12030;50.376;8.762;2022-11-20T07:16:43;18.63;;;14.03;;
23702;SDS011;12030;50.376;8.762;2022-11-20T07:19:09;18.93;;;14.30;;
23702;SDS011;12030;50.376;8.762;2022-11-20T07:21:35;18.67;;;14.70;;
23702;SDS011;12030;50.376;8.762;2022-11-20T07:24:00;18.70;;;14.10;;
23702;SDS011;12030;50.376;8.762;2022-11-20T07:26:26;17.70;;;14.03;;
23702;SDS011;12030;50.376;8.762;2022-11-20T07:28:51;18.33;;;14.27;;
23702;SDS011;12030;50.376;8.762;2022-11-20T07:31:17;16.73;;;13.40;;
23702;SDS011;12030;50.376;8.762;2022-11-20T07:33:42;16.87;;;13.47;;
23702;SDS011;12030;50.376;8.762;2022-11-20T07:36:08;17.87;;;13.73;;
23702;SDS011;12030;50.376;8.762;2022-11-20T07:38:33;20.37;;;14.10;;
23702;SDS011;12030;50.376;8.762;2022-11-20T07:40:59;18.77;;;14.83;;
23702;SDS011;12030;50.376;8.762;2022-11-20T07:43:26;19.60;;;14.73;;
23702;SDS011;12030;50.376;8.762;2022-11-20T07:45:52;19.73;;;13.93;;
23702;SDS011;12030;50.376;8.762;2022-11-20T07:48:20;18.00;;;14.03;;
23702;SDS011;12030;50.376;8.762;2022-11-20T07:50:45;17.77;;;13.43;;
23702;SDS011;12030;50.376;8.762;2022-11-20T07:53:11;16.73;;;14.33;;
23702;SDS011;12030;50.376;8.762;2022-11-20T07:55:37;18.10;;;14.43;;
23702;SDS011;12030;50.376;8.762;2022-11-20T07:58:03;21.73;;;15.70;;
23702;SDS011;12030;50.376;8.762;2022-11-20T08:00:28;20.30;;;15.27;;
23702;SDS011;12030;50.376;8.762;2022-11-20T08:02:54;20.27;;;16.20;;
23702;SDS011;12030;50.376;8.762;2022-11-20T08:05:19;17.87;;;13.30;;
23702;SDS011;12030;50.376;8.762;2022-11-20T08:07:45;19.60;;;14.67;;
23702;SDS011;12030;50.376;8.762;2022-11-20T08:10:12;19.83;;;15.47;;
23702;SDS011;12030;50.376;8.762;2022-11-20T08:12:45;17.53;;;14.53;;
23702;SDS011;12030;50.376;8.762;2022-11-20T08:15:35;22.93;;;15.03;;
23702;SDS011;12030;50.376;8.762;2022-11-20T08:18:02;21.27;;;15.60;;
23702;SDS011;12030;50.376;8.762;2022-11-20T08:20:30;18.27;;;14.67;;
23702;SDS011;12030;50.376;8.762;2022-11-20T08:23:03;17.87;;;13.80;;
23702;SDS011;12030;50.376;8.762;2022-11-20T08:25:30;21.00;;;15.13;;
23702;SDS011;12030;50.376;8.762;2022-11-20T08:27:58;17.23;;;13.93;;
23702;SDS011;12030;50.376;8.762;2022-11-20T08:30:24;19.30;;;14.33;;
23702;SDS011;12030;50.376;8.762;2022-11-20T08:32:50;21.17;;;14.30;;
23702;SDS011;12030;50.376;8.762;2022-11-20T08:35:15;20.23;;;15.80;;
23702;SDS011;12030;50.376;8.762;2022-11-20T08:37:41;21.33;;;15.30;;
23702;SDS011;12030;50.376;8.762;2022-11-20T08:40:10;22.97;;;16.77;;
23702;SDS011;12030;50.376;8.762;2022-11-20T08:42:36;22.47;;;15.97;;
23702;SDS011;12030;50.376;8.762;2022-11-20T08:45:02;21.03;;;15.77;;
23702;SDS011;12030;50.376;8.762;2022-11-20T08:47:27;19.93;;;15.53;;
23702;SDS011;12030;50.376;8.762;2022-11-20T08:49:53;20.07;;;15.07;;
23702;SDS011;12030;50.376;8.762;2022-11-20T08:52:19;21.00;;;15.73;;
23702;SDS011;12030;50.376;8.762;2022-11-20T08:54:44;19.73;;;15.93;;
23702;SDS011;12030;50.376;8.762;2022-11-20T08:57:10;18.63;;;15.20;;
23702;SDS011;12030;50.376;8.762;2022-11-20T08:59:35;21.97;;;16.47;;
23702;SDS011;12030;50.376;8.762;2022-11-20T09:02:01;19.87;;;16.27;;
23702;SDS011;12030;50.376;8.762;2022-11-20T09:04:26;22.43;;;16.70;;
23702;SDS011;12030;50.376;8.762;2022-11-20T09:06:52;19.60;;;15.73;;
23702;SDS011;12030;50.376;8.762;2022-11-20T09:09:17;24.47;;;17.23;;
23702;SDS011;12030;50.376;8.762;2022-11-20T09:11:43;23.37;;;18.33;;
23702;SDS011;12030;50.376;8.762;2022-11-20T09:14:09;20.20;;;17.00;;
23702;SDS011;12030;50.376;8.762;2022-11-20T09:16:35;22.30;;;16.80;;
23702;SDS011;12030;50.376;8.762;2022-11-20T09:19:00;23.83;;;17.77;;
23702;SDS011;12030;50.376;8.762;2022-11-20T09:21:26;22.97;;;18.03;;
23702;SDS011;12030;50.376;8.762;2022-11-20T09:23:51;24.60;;;18.33;;
23702;SDS011;12030;50.376;8.762;2022-11-20T09:26:17;23.27;;;17.90;;
23702;SDS011;12030;50.376;8.762;2022-11-20T09:28:43;22.97;;;17.57;;
23702;SDS011;12030;50.376;8.762;2022-11-20T09:31:09;25.40;;;17.57;;
23702;SDS011;12030;50.376;8.762;2022-11-20T09:33:48;22.43;;;17.90;;
23702;SDS011;12030;50.376;8.762;2022-11-20T09:36:14;22.80;;;18.73;;
23702;SDS011;12030;50.376;8.762;2022-11-20T09:38:40;23.07;;;18.07;;
23702;SDS011;12030;50.376;8.762;2022-11-20T09:41:06;20.73;;;17.63;;
23702;SDS011;12030;50.376;8.762;2022-11-20T09:44:05;22.43;;;17.70;;
23702;SDS011;12030;50.376;8.762;2022-11-20T09:46:55;23.43;;;17.67;;
23702;SDS011;12030;50.376;8.762;2022-11-20T09:52:00;21.50;;;17.57;;
23702;SDS011;12030;50.376;8.762;2022-11-20T09:54:47;22.27;;;17.07;;
23702;SDS011;12030;50.376;8.762;2022-11-20T09:57:14;21.57;;;17.80;;
23702;SDS011;12030;50.376;8.762;2022-11-20T10:05:44;19.83;;;16.60;;
23702;SDS011;12030;50.376;8.762;2022-11-20T10:07:49;21.27;;;17.20;;
23702;SDS011;12030;50.376;8.762;2022-11-20T10:10:50;20.17;;;17.23;;
23702;SDS011;12030;50.376;8.762;2022-11-20T10:13:27;21.77;;;17.13;;
23702;SDS011;12030;50.376;8.762;2022-11-20T10:24:36;20.47;;;16.23;;
23702;SDS011;12030;50.376;8.762;2022-11-20T10:32:30;21.17;;;17.27;;
23702;SDS011;12030;50.376;8.762;2022-11-20T10:35:01;22.43;;;17.97;;
23702;SDS011;12030;50.376;8.762;2022-11-20T10:37:48;23.47;;;17.73;;
23702;SDS011;12030;50.376;8.762;2022-11-20T10:40:20;23.00;;;18.27;;
23702;SDS011;12030;50.376;8.762;2022-11-20T10:50:47;25.20;;;19.73;;
23702;SDS011;12030;50.376;8.762;2022-11-20T10:55:58;25.77;;;18.33;;
23702;SDS011;12030;50.376;8.762;2022-11-20T11:01:17;24.60;;;18.30;;
23702;SDS011;12030;50.376;8.762;2022-11-20T11:03:44;23.57;;;18.93;;
23702;SDS011;12030;50.376;8.762;2022-11-20T11:06:56;23.23;;;17.73;;
23702;SDS011;12030;50.376;8.762;2022-11-20T11:08:56;31.07;;;21.73;;
23702;SDS011;12030;50.376;8.762;2022-11-20T11:11:27;24.07;;;18.77;;
23702;SDS011;12030;50.376;8.762;2022-11-20T11:14:14;24.17;;;19.03;;
23702;SDS011;12030;50.376;8.762;2022-11-20T11:16:50;22.30;;;18.33;;
23702;SDS011;12030;50.376;8.762;2022-11-20T11:19:21;21.93;;;17.90;;
23702;SDS011;12030;50.376;8.762;2022-11-20T11:21:47;22.33;;;16.17;;
23702;SDS011;12030;50.376;8.762;2022-11-20T11:24:19;22.10;;;16.93;;
23702;SDS011;12030;50.376;8.762;2022-11-20T11:29:22;20.10;;;15.67;;
23702;SDS011;12030;50.376;8.762;2022-11-20T11:31:49;20.20;;;16.10;;
23702;SDS011;12030;50.376;8.762;2022-11-20T11:34:15;20.63;;;16.77;;
23702;SDS011;12030;50.376;8.762;2022-11-20T11:36:42;19.20;;;16.23;;
23702;SDS011;12030;50.376;8.762;2022-11-20T11:39:19;20.67;;;16.83;;
23702;SDS011;12030;50.376;8.762;2022-11-20T11:41:46;22.07;;;16.67;;
23702;SDS011;12030;50.376;8.762;2022-11-20T11:44:15;19.27;;;16.03;;
23702;SDS011;12030;50.376;8.762;2022-11-20T11:47:21;17.07;;;13.23;;
23702;SDS011;12030;50.376;8.762;2022-11-20T11:55:07;15.70;;;12.47;;
23702;SDS011;12030;50.376;8.762;2022-11-20T12:00:15;17.77;;;13.50;;
23702;SDS011;12030;50.376;8.762;2022-11-20T12:05:29;15.27;;;13.50;;
23702;SDS011;12030;50.376;8.762;2022-11-20T12:10:53;18.20;;;15.00;;
23702;SDS011;12030;50.376;8.762;2022-11-20T12:13:24;19.00;;;15.13;;
23702;SDS011;12030;50.376;8.762;2022-11-20T12:16:00;22.60;;;17.80;;
23702;SDS011;12030;50.376;8.762;2022-11-20T12:18:27;17.43;;;14.70;;
23702;SDS011;12030;50.376;8.762;2022-11-20T12:21:17;19.20;;;15.33;;
23702;SDS011;12030;50.376;8.762;2022-11-20T12:24:03;20.40;;;15.37;;
23702;SDS011;12030;50.376;8.762;2022-11-20T12:26:43;18.27;;;14.23;;
23702;SDS011;12030;50.376;8.762;2022-11-20T12:29:18;19.33;;;15.70;;
23702;SDS011;12030;50.376;8.762;2022-11-20T12:32:22;20.40;;;16.60;;
23702;SDS011;12030;50.376;8.762;2022-11-20T12:41:06;27.07;;;22.17;;
23702;SDS011;12030;50.376;8.762;2022-11-20T12:43:40;30.50;;;22.30;;
23702;SDS011;12030;50.376;8.762;2022-11-20T12:50:08;27.77;;;21.23;;
23702;SDS011;12030;50.376;8.762;2022-11-20T12:57:29;25.07;;;19.77;;
23702;SDS011;12030;50.376;8.762;2022-11-20T13:00:19;29.27;;;21.83;;
23702;SDS011;12030;50.376;8.762;2022-11-20T13:02:55;26.53;;;20.60;;
23702;SDS011;12030;50.376;8.762;2022-11-20T13:06:01;30.63;;;22.10;;
23702;SDS011;12030;50.376;8.762;2022-11-20T13:08:37;30.93;;;22.37;;
23702;SDS011;12030;50.376;8.762;2022-11-20T13:16:46;32.37;;;22.77;;
23702;SDS011;12030;50.376;8.762;2022-11-20T13:19:23;35.07;;;24.73;;
23702;SDS011;12030;50.376;8.762;2022-11-20T13:21:49;29.20;;;22.37;;
23702;SDS011;12030;50.376;8.762;2022-11-20T13:26:44;32.57;;;23.67;;
23702;SDS011;12030;50.376;8.762;2022-11-20T13:29:19;31.17;;;23.73;;
23702;SDS011;12030;50.376;8.762;2022-11-20T13:31:46;33.60;;;23.53;;
23702;SDS011;12030;50.376;8.762;2022-11-20T13:34:23;28.10;;;21.70;;
23702;SDS011;12030;50.376;8.762;2022-11-20T13:36:51;33.40;;;24.17;;
23702;SDS011;12030;50.376;8.762;2022-11-20T13:39:25;28.37;;;21.23;;
23702;SDS011;12030;50.376;8.762;2022-11-20T13:42:02;28.80;;;21.30;;
23702;SDS011;12030;50.376;8.762;2022-11-20T13:44:38;29.03;;;22.00;;
23702;SDS011;12030;50.376;8.762;2022-11-20T13:47:22;27.50;;;21.00;;
23702;SDS011;12030;50.376;8.762;2022-11-20T13:49:49;28.87;;;21.17;;
23702;SDS011;12030;50.376;8.762;2022-11-20T14:00:23;28.87;;;21.50;;
23702;SDS011;12030;50.376;8.762;2022-11-20T14:03:07;26.03;;;20.47;;
23702;SDS011;12030;50.376;8.762;2022-11-20T14:05:40;30.97;;;21.73;;
23702;SDS011;12030;50.376;8.762;2022-11-20T14:08:37;29.57;;;21.20;;
23702;SDS011;12030;50.376;8.762;2022-11-20T14:13:54;29.03;;;21.40;;
23702;SDS011;12030;50.376;8.762;2022-11-20T14:16:24;30.93;;;22.30;;
23702;SDS011;12030;50.376;8.762;2022-11-20T14:18:52;26.77;;;20.77;;
23702;SDS011;12030;50.376;8.762;2022-11-20T14:21:28;30.60;;;22.00;;
23702;SDS011;12030;50.376;8.762;2022-11-20T14:24:04;31.60;;;23.10;;
23702;SDS011;12030;50.376;8.762;2022-11-20T14:26:30;30.80;;;21.70;;
23702;SDS011;12030;50.376;8.762;2022-11-20T14:28:57;28.60;;;20.70;;
23702;SDS011;12030;50.376;8.762;2022-11-20T14:31:23;29.90;;;20.93;;
23702;SDS011;12030;50.376;8.762;2022-11-20T14:33:51;27.13;;;20.80;;
23702;SDS011;12030;50.376;8.762;2022-11-20T14:36:19;22.13;;;16.40;;
23702;SDS011;12030;50.376;8.762;2022-11-20T14:38:50;28.80;;;20.67;;
23702;SDS011;12030;50.376;8.762;2022-11-20T14:41:18;28.70;;;20.20;;
23702;SDS011;12030;50.376;8.762;2022-11-20T14:43:46;27.77;;;20.10;;
23702;SDS011;12030;50.376;8.762;2022-11-20T14:46:14;28.83;;;20.47;;
23702;SDS011;12030;50.376;8.762;2022-11-20T14:48:41;26.00;;;20.07;;
23702;SDS011;12030;50.376;8.762;2022-11-20T14:51:30;27.67;;;19.23;;
23702;SDS011;12030;50.376;8.762;2022-11-20T14:54:10;27.57;;;18.70;;
23702;SDS011;12030;50.376;8.762;2022-11-20T14:56:55;27.27;;;18.77;;
23702;SDS011;12030;50.376;8.762;2022-11-20T14:59:27;28.17;;;20.00;;
23702;SDS011;12030;50.376;8.762;2022-11-20T15:01:55;27.47;;;19.37;;
23702;SDS011;12030;50.376;8.762;2022-11-20T15:04:24;27.70;;;20.17;;
23702;SDS011;12030;50.376;8.762;2022-11-20T15:06:50;28.10;;;20.67;;
23702;SDS011;12030;50.376;8.762;2022-11-20T15:09:17;28.00;;;20.87;;
23702;SDS011;12030;50.376;8.762;2022-11-20T15:11:56;27.17;;;19.93;;
23702;SDS011;12030;50.376;8.762;2022-11-20T15:14:24;21.10;;;15.10;;
23702;SDS011;12030;50.376;8.762;2022-11-20T15:16:51;27.63;;;20.13;;
23702;SDS011;12030;50.376;8.762;2022-11-20T15:19:21;27.80;;;18.83;;
23702;SDS011;12030;50.376;8.762;2022-11-20T15:21:48;24.47;;;19.10;;
23702;SDS011;12030;50.376;8.762;2022-11-20T15:24:14;25.53;;;19.83;;
23702;SDS011;12030;50.376;8.762;2022-11-20T15:26:40;25.03;;;19.30;;
23702;SDS011;12030;50.376;8.762;2022-11-20T15:29:09;27.57;;;19.80;;
23702;SDS011;12030;50.376;8.762;2022-11-20T15:31:37;27.90;;;19.17;;
23702;SDS011;12030;50.376;8.762;2022-11-20T15:34:08;28.37;;;20.53;;
23702;SDS011;12030;50.376;8.762;2022-11-20T15:36:41;27.57;;;20.67;;
23702;SDS011;12030;50.376;8.762;2022-11-20T15:39:08;30.40;;;20.90;;
23702;SDS011;12030;50.376;8.762;2022-11-20T15:41:36;30.30;;;20.90;;
23702;SDS011;12030;50.376;8.762;2022-11-20T15:44:03;29.87;;;20.67;;
23702;SDS011;12030;50.376;8.762;2022-11-20T15:46:30;29.17;;;19.83;;
23702;SDS011;12030;50.376;8.762;2022-11-20T15:49:03;31.93;;;22.00;;
23702;SDS011;12030;50.376;8.762;2022-11-20T15:51:30;31.40;;;21.67;;
23702;SDS011;12030;50.376;8.762;2022-11-20T15:54:00;32.13;;;20.93;;
23702;SDS011;12030;50.376;8.762;2022-11-20T15:56:28;32.53;;;21.63;;
23702;SDS011;12030;50.376;8.762;2022-11-20T15:58:54;32.83;;;22.40;;
23702;SDS011;12030;50.376;8.762;2022-11-20T16:01:22;33.47;;;23.40;;
23702;SDS011;12030;50.376;8.762;2022-11-20T16:03:48;35.40;;;23.53;;
23702;SDS011;12030;50.376;8.762;2022-11-20T16:06:13;36.17;;;24.43;;
23702;SDS011;12030;50.376;8.762;2022-11-20T16:08:41;36.73;;;25.30;;
23702;SDS011;12030;50.376;8.762;2022-11-20T16:11:06;36.20;;;25.47;;